Time;durP1;ratioP1;P1;durP2;ratioP2;P2;SDS_P1;SDS_P2;PMS_P1;PMS_P2;Temp;Humidity;BMP_temperature;BMP_pressure;BME280_temperature;BME280_humidity;BME280_pressure;Samples;Min_cycle;Max_cycle;Signal;HPM_P1;HPM_P2
2023/04/27 00:02:05;;;;;;;5.00;1.90;;;5.80;99.90;;;;;;4994536;28;20562;-85
2023/04/27 00:04:51;;;;;;;3.67;1.77;;;5.70;99.90;;;;;;4995828;28;20093;-85
2023/04/27 00:07:38;;;;;;;8.57;2.33;;;5.70;99.90;;;;;;4995947;28;20054;-86
2023/04/27 00:10:24;;;;;;;6.65;2.28;;;5.60;99.90;;;;;;4993692;28;20058;-86
2023/04/27 00:13:10;;;;;;;4.88;1.80;;;5.50;99.90;;;;;;4993847;28;20100;-85
2023/04/27 00:15:56;;;;;;;4.63;2.10;;;5.50;99.90;;;;;;4994355;28;20058;-85
2023/04/27 00:18:42;;;;;;;5.63;1.75;;;5.40;99.90;;;;;;5012082;28;20410;-86
2023/04/27 00:21:28;;;;;;;6.93;2.00;;;5.40;99.90;;;;;;4993581;28;20044;-86
2023/04/27 00:24:14;;;;;;;4.68;2.20;;;5.30;99.90;;;;;;4994111;28;20046;-85
2023/04/27 00:27:00;;;;;;;6.65;1.80;;;5.30;99.90;;;;;;5011038;28;20057;-85
2023/04/27 00:29:46;;;;;;;4.50;1.98;;;5.20;99.90;;;;;;4981443;28;20498;-83
2023/04/27 00:32:32;;;;;;;5.05;1.90;;;5.20;99.90;;;;;;4993605;28;20112;-85
2023/04/27 00:35:18;;;;;;;4.55;1.88;;;5.10;99.90;;;;;;5010569;28;20061;-85
2023/04/27 00:38:04;;;;;;;4.65;2.00;;;5.10;99.90;;;;;;5012715;28;20050;-86
2023/04/27 00:40:50;;;;;;;5.57;2.10;;;5.10;99.90;;;;;;4993209;28;20133;-85
2023/04/27 00:43:45;;;;;;;4.68;1.60;;;5.10;99.90;;;;;;4993533;28;20120;-83
2023/04/27 00:46:32;;;;;;;4.55;1.95;;;5.10;99.90;;;;;;4981430;28;20054;-83
2023/04/27 00:49:23;;;;;;;4.78;2.20;;;5.00;99.90;;;;;;4996952;28;20460;-80
2023/04/27 00:52:10;;;;;;;6.35;2.63;;;5.00;99.90;;;;;;5011402;28;20509;-84
2023/04/27 00:54:56;;;;;;;4.45;2.35;;;4.90;99.90;;;;;;5011657;28;20123;-84
2023/04/27 00:57:42;;;;;;;6.60;2.30;;;4.90;99.90;;;;;;4994108;28;20560;-84
2023/04/27 01:00:29;;;;;;;5.72;2.28;;;4.90;99.90;;;;;;4981044;28;20409;-84
2023/04/27 01:03:15;;;;;;;6.05;2.28;;;4.80;99.90;;;;;;4981140;28;20137;-85
2023/04/27 01:06:02;;;;;;;5.32;2.25;;;4.70;99.90;;;;;;4993704;28;20140;-80
2023/04/27 01:08:48;;;;;;;8.70;2.13;;;4.60;99.90;;;;;;4981264;28;20458;-83
2023/04/27 01:11:34;;;;;;;7.68;2.38;;;4.60;99.90;;;;;;5011992;28;20049;-85
2023/04/27 01:14:20;;;;;;;5.05;2.25;;;4.60;99.90;;;;;;4980541;28;20050;-85
2023/04/27 01:17:07;;;;;;;7.90;2.63;;;4.60;99.90;;;;;;4992418;28;20054;-85
2023/04/27 01:19:54;;;;;;;9.07;2.70;;;4.60;99.90;;;;;;4980791;28;20050;-84
2023/04/27 01:22:40;;;;;;;8.32;3.08;;;4.60;99.90;;;;;;5011940;28;20053;-80
2023/04/27 01:25:26;;;;;;;8.93;3.53;;;4.50;99.90;;;;;;5011944;28;20046;-84
2023/04/27 01:28:13;;;;;;;9.88;3.50;;;4.50;99.90;;;;;;5009592;28;20054;-82
2023/04/27 01:30:59;;;;;;;5.70;2.78;;;4.50;99.90;;;;;;4980779;28;20397;-85
2023/04/27 01:33:45;;;;;;;6.07;3.13;;;4.50;99.90;;;;;;5008256;28;20410;-85
2023/04/27 01:36:31;;;;;;;7.25;3.25;;;4.40;99.90;;;;;;4992555;28;20556;-85
2023/04/27 01:39:17;;;;;;;11.10;4.20;;;4.40;99.90;;;;;;4992887;28;20096;-81
2023/04/27 01:42:03;;;;;;;7.55;4.05;;;4.30;99.90;;;;;;4991659;28;20101;-80
2023/04/27 01:44:49;;;;;;;7.80;3.60;;;4.30;99.90;;;;;;4993404;28;20042;-85
2023/04/27 01:47:35;;;;;;;7.68;4.38;;;4.30;99.90;;;;;;4992636;28;20061;-85
2023/04/27 01:50:21;;;;;;;8.85;3.67;;;4.20;99.90;;;;;;4979977;28;20061;-84
2023/04/27 01:53:07;;;;;;;9.60;3.83;;;4.20;99.90;;;;;;4978700;28;20054;-84
2023/04/27 01:55:54;;;;;;;11.32;4.55;;;4.10;99.90;;;;;;4980175;28;20500;-84
2023/04/27 01:58:40;;;;;;;7.07;3.33;;;4.00;99.90;;;;;;4992220;28;20107;-84
2023/04/27 02:01:26;;;;;;;9.30;3.35;;;4.00;99.90;;;;;;5009754;28;20057;-84
2023/04/27 02:04:12;;;;;;;10.43;3.80;;;3.90;99.90;;;;;;5009448;28;20111;-84
2023/04/27 02:06:58;;;;;;;7.95;4.15;;;3.90;99.90;;;;;;4993189;28;20115;-85
2023/04/27 02:09:44;;;;;;;5.90;3.28;;;3.90;99.90;;;;;;4991606;28;20077;-85
2023/04/27 02:12:30;;;;;;;8.85;3.75;;;3.90;99.90;;;;;;5010117;28;20042;-85
2023/04/27 02:15:16;;;;;;;10.50;3.63;;;3.80;99.90;;;;;;5008969;28;20465;-84
2023/04/27 02:18:03;;;;;;;8.13;4.40;;;3.80;99.90;;;;;;4993592;28;20054;-85
2023/04/27 02:20:49;;;;;;;7.00;3.72;;;3.80;99.90;;;;;;4979607;28;20141;-86
2023/04/27 02:23:35;;;;;;;7.18;3.92;;;3.80;99.90;;;;;;4991474;28;20050;-86
2023/04/27 02:26:27;;;;;;;7.53;3.85;;;3.80;99.90;;;;;;4990279;28;20062;-85
2023/04/27 02:29:13;;;;;;;6.43;2.83;;;3.70;99.90;;;;;;4993369;28;20062;-86
2023/04/27 02:32:00;;;;;;;9.68;3.58;;;3.70;99.90;;;;;;4979927;28;20450;-86
2023/04/27 02:34:46;;;;;;;10.80;5.50;;;3.70;99.90;;;;;;4991458;28;20053;-86
2023/04/27 02:37:32;;;;;;;7.47;3.92;;;3.70;99.90;;;;;;5010832;28;20500;-86
2023/04/27 02:40:20;;;;;;;7.13;3.63;;;3.60;99.90;;;;;;4992530;28;20061;-86
2023/04/27 02:43:06;;;;;;;8.25;3.78;;;3.60;99.90;;;;;;4980051;28;20776;-86
2023/04/27 02:45:52;;;;;;;6.82;3.55;;;3.50;99.90;;;;;;4993315;28;20069;-86
2023/04/27 02:48:38;;;;;;;9.88;3.97;;;3.50;99.90;;;;;;4992457;28;20053;-86
2023/04/27 02:51:24;;;;;;;11.18;3.92;;;3.50;99.90;;;;;;4991373;28;20089;-85
2023/04/27 02:54:10;;;;;;;6.82;3.08;;;3.50;99.90;;;;;;5008484;28;20050;-85
2023/04/27 02:56:57;;;;;;;10.27;4.32;;;3.40;99.90;;;;;;5007681;28;20144;-86
2023/04/27 02:59:43;;;;;;;11.77;3.90;;;3.40;99.90;;;;;;4994880;28;20076;-86
2023/04/27 03:02:29;;;;;;;6.22;3.42;;;3.40;99.90;;;;;;4995569;28;20053;-87
2023/04/27 03:05:15;;;;;;;9.23;3.47;;;3.30;99.90;;;;;;4995422;28;20428;-86
2023/04/27 03:08:01;;;;;;;9.85;3.30;;;3.30;99.90;;;;;;4995314;28;20132;-86
2023/04/27 03:10:47;;;;;;;7.18;3.72;;;3.20;99.90;;;;;;4996718;28;20518;-86
2023/04/27 03:13:40;;;;;;;6.18;3.45;;;3.20;99.90;;;;;;5013505;28;20073;-86
2023/04/27 03:16:26;;;;;;;8.32;3.10;;;3.10;99.90;;;;;;5011905;28;20112;-87
2023/04/27 03:19:12;;;;;;;6.22;3.40;;;3.10;99.90;;;;;;4982736;28;20070;-86
2023/04/27 03:21:58;;;;;;;6.28;3.50;;;3.10;99.90;;;;;;4996626;28;20402;-85
2023/04/27 03:24:44;;;;;;;7.25;3.50;;;3.10;99.90;;;;;;5012523;28;20046;-86
2023/04/27 03:27:30;;;;;;;7.72;3.03;;;3.10;99.90;;;;;;4994427;28;20053;-82
2023/04/27 03:30:16;;;;;;;9.90;4.38;;;3.10;99.90;;;;;;5014105;28;20086;-82
2023/04/27 03:33:02;;;;;;;11.40;4.13;;;3.10;99.90;;;;;;4995356;28;20077;-81
2023/04/27 03:35:58;;;;;;;9.70;3.83;;;3.10;99.90;;;;;;4994908;28;20883;-83
2023/04/27 03:38:44;;;;;;;6.88;3.03;;;3.10;99.90;;;;;;4995235;28;20046;-81
2023/04/27 03:41:30;;;;;;;11.68;3.97;;;3.10;99.90;;;;;;4996148;28;20457;-83
2023/04/27 03:44:16;;;;;;;9.65;4.45;;;3.10;99.90;;;;;;5011541;28;20560;-83
2023/04/27 03:47:07;;;;;;;7.15;3.67;;;3.10;99.90;;;;;;4994204;28;20052;-85
2023/04/27 03:49:54;;;;;;;8.48;4.78;;;3.10;99.90;;;;;;5013511;28;20046;-83
2023/04/27 03:52:40;;;;;;;7.32;4.38;;;3.10;99.90;;;;;;5012864;28;20050;-84
2023/04/27 03:55:26;;;;;;;8.07;4.63;;;3.00;99.90;;;;;;4982876;28;20156;-85
2023/04/27 03:58:12;;;;;;;8.43;3.92;;;3.00;99.90;;;;;;4994248;28;20069;-82
2023/04/27 04:00:58;;;;;;;11.85;5.18;;;2.90;99.90;;;;;;4982739;28;20050;-86
2023/04/27 04:03:46;;;;;;;8.65;3.60;;;2.90;99.90;;;;;;4995965;28;20050;-86
2023/04/27 04:06:32;;;;;;;9.30;4.10;;;2.90;99.90;;;;;;4994943;28;20058;-83
2023/04/27 04:09:18;;;;;;;10.45;3.13;;;2.80;99.90;;;;;;4994617;28;20057;-85
2023/04/27 04:12:05;;;;;;;9.85;4.03;;;2.80;99.90;;;;;;4994110;28;20068;-84
2023/04/27 04:14:51;;;;;;;13.93;4.30;;;2.80;99.90;;;;;;5012245;28;20172;-86
2023/04/27 04:17:37;;;;;;;9.15;3.83;;;2.80;99.90;;;;;;4994953;28;20076;-86
2023/04/27 04:20:23;;;;;;;7.38;3.80;;;2.80;99.90;;;;;;4994009;28;20057;-85
2023/04/27 04:23:09;;;;;;;7.78;3.75;;;2.80;99.90;;;;;;5012402;28;20125;-80
2023/04/27 04:25:55;;;;;;;7.68;4.20;;;2.80;99.90;;;;;;4995514;28;20050;-83
2023/04/27 04:28:42;;;;;;;10.30;4.43;;;2.80;99.90;;;;;;4994286;28;20151;-82
2023/04/27 04:31:29;;;;;;;8.38;4.13;;;2.80;99.90;;;;;;4994733;28;20056;-85
2023/04/27 04:34:15;;;;;;;8.13;3.60;;;2.80;99.90;;;;;;4994123;28;20049;-84
2023/04/27 04:37:01;;;;;;;7.93;3.60;;;2.80;99.90;;;;;;4993565;28;20449;-86
2023/04/27 04:39:47;;;;;;;9.77;3.33;;;2.90;99.90;;;;;;4993322;28;20462;-82
2023/04/27 04:42:33;;;;;;;10.50;5.15;;;2.90;99.90;;;;;;4993374;28;20473;-82
2023/04/27 04:45:20;;;;;;;10.10;4.35;;;3.00;99.90;;;;;;4980698;28;20104;-86
2023/04/27 04:48:07;;;;;;;11.35;4.43;;;3.10;99.90;;;;;;4995069;28;20046;-85
2023/04/27 04:50:53;;;;;;;13.63;4.82;;;3.30;99.90;;;;;;4993702;28;20096;-85
2023/04/27 04:53:39;;;;;;;13.18;4.95;;;3.40;99.90;;;;;;4981293;28;20057;-85
2023/04/27 04:56:25;;;;;;;12.20;5.28;;;3.60;99.90;;;;;;4981847;28;20528;-84
2023/04/27 04:59:11;;;;;;;10.95;4.78;;;3.70;99.90;;;;;;4992805;28;20061;-81
2023/04/27 05:01:57;;;;;;;12.40;5.15;;;3.80;99.90;;;;;;4992803;28;20055;-84
2023/04/27 05:04:44;;;;;;;11.02;5.40;;;4.10;99.90;;;;;;5010501;28;20054;-82
2023/04/27 05:07:30;;;;;;;10.25;5.55;;;4.30;99.90;;;;;;4994191;28;20057;-83
2023/04/27 05:10:16;;;;;;;12.15;5.28;;;4.50;99.90;;;;;;4993443;28;20062;-84
2023/04/27 05:13:02;;;;;;;15.13;6.22;;;4.70;99.90;;;;;;4993092;28;20509;-84
2023/04/27 05:15:48;;;;;;;11.05;5.72;;;4.80;99.90;;;;;;4980852;28;20052;-81
2023/04/27 05:18:35;;;;;;;11.65;5.93;;;4.90;99.90;;;;;;4981391;28;20058;-83
2023/04/27 05:21:21;;;;;;;12.82;5.45;;;5.00;99.90;;;;;;4993579;28;20062;-84
2023/04/27 05:24:07;;;;;;;9.48;5.15;;;5.00;99.90;;;;;;4992658;28;20057;-83
2023/04/27 05:26:53;;;;;;;11.80;5.15;;;5.00;99.90;;;;;;4992204;28;20184;-81
2023/04/27 05:29:39;;;;;;;13.30;4.70;;;5.00;99.90;;;;;;5011563;28;20058;-85
2023/04/27 05:32:26;;;;;;;12.93;5.00;;;5.00;99.90;;;;;;4992932;28;20053;-83
2023/04/27 05:35:12;;;;;;;10.38;4.80;;;4.90;99.90;;;;;;5012041;28;20141;-83
2023/04/27 05:37:58;;;;;;;9.05;4.85;;;5.00;99.90;;;;;;4994537;28;20526;-83
2023/04/27 05:40:44;;;;;;;9.25;5.32;;;5.10;99.90;;;;;;4992626;28;20486;-84
2023/04/27 05:43:30;;;;;;;8.48;4.85;;;5.20;99.90;;;;;;4992940;28;20062;-83
2023/04/27 05:46:16;;;;;;;9.50;4.75;;;5.30;99.90;;;;;;4993777;28;20053;-82
2023/04/27 05:49:02;;;;;;;10.18;4.75;;;5.40;99.90;;;;;;4980185;28;20442;-83
2023/04/27 05:51:49;;;;;;;10.85;5.88;;;5.60;99.90;;;;;;5007407;28;20056;-84
2023/04/27 05:54:35;;;;;;;8.75;5.05;;;5.70;99.90;;;;;;4980867;28;20531;-83
2023/04/27 05:57:21;;;;;;;13.70;4.55;;;5.90;99.90;;;;;;5009456;28;20164;-83
2023/04/27 06:00:09;;;;;;;13.30;5.05;;;6.00;99.90;;;;;;4992366;28;20160;-82
2023/04/27 06:02:55;;;;;;;7.03;4.07;;;6.10;99.90;;;;;;4994137;28;20115;-81
2023/04/27 06:05:41;;;;;;;9.32;4.38;;;6.20;99.90;;;;;;4992245;28;20141;-83
2023/04/27 06:08:28;;;;;;;7.78;3.72;;;6.30;99.90;;;;;;4992702;28;20060;-86
2023/04/27 06:11:15;;;;;;;8.10;3.78;;;6.40;99.90;;;;;;4980579;28;20509;-87
2023/04/27 06:14:01;;;;;;;8.60;3.85;;;6.60;99.90;;;;;;4993477;28;20054;-86
2023/04/27 06:16:47;;;;;;;9.45;3.95;;;6.70;99.90;;;;;;4979902;28;20057;-87
2023/04/27 06:19:33;;;;;;;9.68;4.30;;;6.80;99.90;;;;;;4991723;28;20061;-87
2023/04/27 06:22:19;;;;;;;6.03;3.00;;;6.80;99.90;;;;;;5009668;28;20054;-87
2023/04/27 06:25:06;;;;;;;7.38;3.25;;;6.80;99.90;;;;;;5009597;28;20049;-86
2023/04/27 06:27:53;;;;;;;9.43;3.88;;;6.90;99.90;;;;;;5009726;28;20062;-86
2023/04/27 06:30:39;;;;;;;7.88;3.60;;;6.80;99.90;;;;;;4991703;28;20487;-87
2023/04/27 06:33:25;;;;;;;7.53;3.22;;;6.70;99.90;;;;;;4982933;28;20050;-87
2023/04/27 06:36:11;;;;;;;6.68;3.22;;;6.70;99.90;;;;;;4984078;28;20056;-86
2023/04/27 06:38:58;;;;;;;9.32;3.47;;;6.70;99.90;;;;;;4997440;28;20556;-86
2023/04/27 06:41:44;;;;;;;6.60;3.83;;;6.80;99.90;;;;;;4997054;28;20053;-86
2023/04/27 06:44:30;;;;;;;8.20;3.67;;;6.90;99.90;;;;;;4997123;28;20056;-85
2023/04/27 06:47:16;;;;;;;6.22;3.13;;;7.20;99.90;;;;;;4995912;28;20462;-84
2023/04/27 06:50:03;;;;;;;8.00;3.13;;;7.50;99.90;;;;;;5012826;28;20561;-86
2023/04/27 06:52:49;;;;;;;7.10;3.20;;;7.80;99.90;;;;;;4997477;28;20133;-86
2023/04/27 06:55:35;;;;;;;8.88;3.03;;;7.80;99.90;;;;;;4995673;28;20491;-86
2023/04/27 06:58:21;;;;;;;8.68;3.25;;;7.80;99.90;;;;;;4996094;28;20137;-87
2023/04/27 07:01:07;;;;;;;11.75;3.65;;;7.80;99.90;;;;;;5014698;28;20081;-82
2023/04/27 07:03:53;;;;;;;9.05;3.35;;;7.70;99.90;;;;;;4982576;28;20050;-83
2023/04/27 07:06:39;;;;;;;8.32;3.88;;;7.80;99.90;;;;;;4983882;28;20137;-85
2023/04/27 07:09:27;;;;;;;8.02;3.45;;;7.90;99.90;;;;;;4995133;28;20054;-83
2023/04/27 07:12:13;;;;;;;8.80;3.83;;;7.90;99.90;;;;;;4995324;28;20042;-80
2023/04/27 07:15:00;;;;;;;8.40;3.38;;;7.90;99.90;;;;;;4995136;28;20084;-84
2023/04/27 07:17:46;;;;;;;8.48;3.10;;;7.80;99.90;;;;;;4996657;28;20516;-84
2023/04/27 07:20:32;;;;;;;10.70;2.95;;;7.90;99.90;;;;;;4994862;28;20053;-84
2023/04/27 07:23:18;;;;;;;7.13;3.35;;;7.90;99.90;;;;;;4994962;28;20041;-84
2023/04/27 07:26:06;;;;;;;9.40;2.78;;;8.10;99.90;;;;;;4994938;28;20060;-84
2023/04/27 07:28:52;;;;;;;6.97;2.60;;;8.30;99.90;;;;;;4999864;28;20081;-83
2023/04/27 07:31:38;;;;;;;7.65;3.90;;;8.50;99.90;;;;;;5013730;28;20490;-85
2023/04/27 07:34:25;;;;;;;7.72;2.78;;;8.60;99.90;;;;;;4995221;28;20050;-82
2023/04/27 07:37:11;;;;;;;8.80;3.22;;;8.80;99.90;;;;;;5013759;28;20461;-83
2023/04/27 07:39:58;;;;;;;6.75;2.33;;;9.00;99.90;;;;;;4994517;28;20089;-81
2023/04/27 07:42:47;;;;;;;6.22;2.70;;;9.20;99.90;;;;;;4996055;28;20153;-83
2023/04/27 07:45:33;;;;;;;5.22;2.50;;;9.40;99.90;;;;;;4982170;28;20064;-83
2023/04/27 07:48:19;;;;;;;5.40;2.40;;;9.70;99.90;;;;;;4994977;28;20129;-81
2023/04/27 07:51:05;;;;;;;6.72;2.65;;;9.90;99.90;;;;;;4994519;28;20097;-85
2023/04/27 07:53:51;;;;;;;7.05;2.50;;;10.10;99.90;;;;;;4994320;28;20054;-81
2023/04/27 07:56:40;;;;;;;4.95;2.13;;;10.10;99.90;;;;;;4995261;28;20054;-82
2023/04/27 07:59:30;;;;;;;6.30;2.28;;;10.40;99.90;;;;;;4994391;28;20060;-82
2023/04/27 08:02:17;;;;;;;6.80;1.90;;;10.50;99.90;;;;;;4994466;28;20077;-82
2023/04/27 08:05:04;;;;;;;10.77;2.40;;;10.70;99.90;;;;;;5011818;28;20053;-83
2023/04/27 08:07:52;;;;;;;9.65;3.30;;;11.10;99.90;;;;;;4995242;28;20050;-83
2023/04/27 08:10:38;;;;;;;4.45;1.95;;;11.00;99.20;;;;;;4982552;28;20056;-80
2023/04/27 08:13:24;;;;;;;4.00;1.80;;;11.00;99.20;;;;;;4995706;28;20050;-80
2023/04/27 08:16:10;;;;;;;7.45;2.22;;;10.80;98.90;;;;;;4995219;28;20054;-85
2023/04/27 08:18:57;;;;;;;4.45;1.83;;;10.80;98.80;;;;;;4982547;28;20058;-83
2023/04/27 08:21:43;;;;;;;7.40;2.33;;;10.70;98.80;;;;;;4995187;28;20056;-81
2023/04/27 08:24:29;;;;;;;9.55;2.70;;;10.60;99.20;;;;;;4993633;28;20061;-83
2023/04/27 08:27:15;;;;;;;5.63;3.45;;;10.60;99.20;;;;;;4993782;28;20053;-84
2023/04/27 08:30:02;;;;;;;8.00;1.80;;;10.40;98.90;;;;;;4993529;28;20053;-82
2023/04/27 08:32:48;;;;;;;6.05;2.20;;;10.40;99.00;;;;;;4994123;28;20498;-82
2023/04/27 08:35:34;;;;;;;6.10;2.17;;;10.60;99.70;;;;;;4995391;28;20397;-82
2023/04/27 08:38:22;;;;;;;4.93;1.95;;;10.60;98.70;;;;;;5011843;28;20072;-83
2023/04/27 08:41:08;;;;;;;5.10;2.28;;;10.80;98.90;;;;;;4993114;28;20057;-81
2023/04/27 08:43:54;;;;;;;3.55;1.88;;;10.80;98.30;;;;;;5010671;28;20042;-83
2023/04/27 08:46:40;;;;;;;6.05;2.42;;;11.00;98.60;;;;;;4993889;28;20054;-83
2023/04/27 08:49:26;;;;;;;6.38;1.98;;;11.00;97.70;;;;;;5012034;28;20479;-83
2023/04/27 08:52:14;;;;;;;6.10;2.30;;;11.10;98.00;;;;;;5011242;28;20065;-84
2023/04/27 08:55:00;;;;;;;5.95;2.28;;;11.10;97.30;;;;;;4993625;28;20062;-78
2023/04/27 08:57:54;;;;;;;5.65;2.78;;;11.10;97.60;;;;;;4994434;28;20057;-84
2023/04/27 09:00:42;;;;;;;5.15;2.13;;;11.10;97.40;;;;;;5012008;28;20053;-81
2023/04/27 09:03:28;;;;;;;6.80;2.28;;;11.10;97.70;;;;;;4994100;28;20516;-83
2023/04/27 09:06:15;;;;;;;4.78;2.33;;;11.00;97.40;;;;;;4992333;28;20482;-83
2023/04/27 09:09:02;;;;;;;7.78;2.22;;;10.90;98.10;;;;;;4981375;28;20049;-80
2023/04/27 09:11:48;;;;;;;11.43;3.30;;;10.90;98.20;;;;;;4993723;28;20112;-81
2023/04/27 09:14:35;;;;;;;8.57;2.50;;;10.90;98.90;;;;;;4993344;28;20054;-84
2023/04/27 09:17:29;;;;;;;4.85;2.33;;;10.80;98.30;;;;;;5011009;28;20089;-79
2023/04/27 09:20:17;;;;;;;7.50;2.22;;;10.80;98.40;;;;;;4993527;28;20510;-84
2023/04/27 09:23:03;;;;;;;5.03;2.20;;;10.70;98.70;;;;;;4981255;28;20486;-82
2023/04/27 09:25:49;;;;;;;5.20;2.40;;;10.60;99.00;;;;;;4992872;28;20054;-84
2023/04/27 09:28:40;;;;;;;5.82;2.42;;;10.60;99.00;;;;;;5009849;28;20548;-84
2023/04/27 09:31:33;;;;;;;8.23;2.65;;;10.60;99.10;;;;;;4994546;28;20728;-85
2023/04/27 09:34:19;;;;;;;8.50;3.15;;;10.90;99.00;;;;;;4993111;28;20061;-83
2023/04/27 09:37:06;;;;;;;10.07;3.63;;;11.00;99.20;;;;;;4994303;28;20509;-82
2023/04/27 09:39:52;;;;;;;9.40;3.20;;;11.20;98.90;;;;;;5011652;28;20046;-79
2023/04/27 09:42:39;;;;;;;6.85;2.30;;;11.10;98.30;;;;;;4980436;28;20442;-79
2023/04/27 09:45:25;;;;;;;8.25;3.40;;;11.10;97.50;;;;;;4994244;28;20449;-80
2023/04/27 09:48:12;;;;;;;7.63;3.33;;;11.30;98.20;;;;;;4992695;28;20119;-78
2023/04/27 09:50:58;;;;;;;6.72;3.40;;;11.30;98.10;;;;;;4993709;28;20054;-82
2023/04/27 09:53:51;;;;;;;6.30;3.40;;;11.30;98.10;;;;;;4991941;28;20556;-83
2023/04/27 09:57:03;;;;;;;11.18;3.95;;;11.50;98.30;;;;;;4979616;28;20053;-80
2023/04/27 10:00:16;;;;;;;9.60;3.13;;;11.40;98.30;;;;;;5009970;28;20115;-78
2023/04/27 10:03:20;;;;;;;11.15;3.67;;;11.20;98.60;;;;;;4979231;28;20120;-81
2023/04/27 10:06:27;;;;;;;7.88;3.15;;;10.90;99.10;;;;;;4993893;28;20050;-84
2023/04/27 10:09:16;;;;;;;10.45;3.88;;;11.00;99.10;;;;;;4992842;28;20049;-85
2023/04/27 10:12:20;;;;;;;8.25;3.08;;;11.20;98.60;;;;;;5008676;28;20052;-79
2023/04/27 10:15:16;;;;;;;8.98;3.13;;;11.20;98.10;;;;;;4980195;28;20148;-82
2023/04/27 10:18:04;;;;;;;6.70;3.03;;;11.30;98.90;;;;;;4991714;28;20053;-81
2023/04/27 10:20:51;;;;;;;7.70;3.58;;;11.30;98.80;;;;;;5010518;28;20053;-88
2023/04/27 10:23:51;;;;;;;7.75;3.08;;;11.50;99.00;;;;;;5009409;28;20058;-86
2023/04/27 10:26:48;;;;;;;8.02;3.40;;;11.50;97.70;;;;;;4988615;28;20050;-80
2023/04/27 10:29:42;;;;;;;6.30;3.13;;;11.40;97.20;;;;;;4988564;28;20462;-85
2023/04/27 10:32:28;;;;;;;6.50;3.80;;;11.10;97.30;;;;;;4989320;28;20140;-81
2023/04/27 10:35:14;;;;;;;5.75;2.85;;;11.00;98.20;;;;;;4989456;28;20097;-87
2023/04/27 10:38:15;;;;;;;9.35;2.63;;;10.80;98.30;;;;;;4972060;28;20494;-85
2023/04/27 10:41:04;;;;;;;8.55;2.72;;;10.60;99.90;;;;;;4988769;28;20503;-85
2023/04/27 10:43:50;;;;;;;6.90;2.47;;;10.50;99.90;;;;;;4960174;28;20046;-84
2023/04/27 10:46:48;;;;;;;10.68;3.28;;;10.40;99.90;;;;;;4973523;28;20058;-85
2023/04/27 10:49:34;;;;;;;9.65;3.22;;;10.30;99.90;;;;;;4973093;28;20498;-84
2023/04/27 10:52:20;;;;;;;8.15;2.83;;;10.00;99.90;;;;;;4988854;28;20139;-81
2023/04/27 10:55:14;;;;;;;7.90;2.60;;;9.90;99.90;;;;;;4958818;28;20089;-84
2023/04/27 10:58:01;;;;;;;10.32;2.78;;;9.80;99.90;;;;;;4988292;28;20055;-85
2023/04/27 11:00:47;;;;;;;9.70;2.33;;;9.70;99.90;;;;;;4971705;28;20473;-85
2023/04/27 11:03:33;;;;;;;7.53;2.70;;;9.60;99.90;;;;;;4972062;28;20502;-86
2023/04/27 11:06:20;;;;;;;22.02;4.53;;;9.40;99.90;;;;;;4972228;28;20085;-86
2023/04/27 11:09:06;;;;;;;6.38;2.08;;;9.20;99.90;;;;;;4971931;28;20065;-84
2023/04/27 11:11:52;;;;;;;4.50;2.20;;;9.20;99.90;;;;;;4988493;28;20058;-85
2023/04/27 11:14:38;;;;;;;9.15;1.80;;;9.10;99.90;;;;;;4971865;28;20141;-87
2023/04/27 11:17:31;;;;;;;6.75;1.90;;;9.10;99.90;;;;;;4959179;28;20166;-81
2023/04/27 11:20:26;;;;;;;6.28;1.42;;;9.10;99.90;;;;;;4975691;28;20062;-84
2023/04/27 11:23:25;;;;;;;4.18;2.03;;;9.10;99.90;;;;;;4962940;28;20443;-84
2023/04/27 11:26:25;;;;;;;7.97;2.38;;;9.10;99.90;;;;;;4991792;28;20058;-86
2023/04/27 11:29:12;;;;;;;6.22;2.28;;;9.20;99.90;;;;;;4996204;28;20103;-84
2023/04/27 11:31:58;;;;;;;5.22;2.17;;;9.10;99.90;;;;;;4993870;28;20053;-87
2023/04/27 11:34:49;;;;;;;6.18;1.98;;;9.10;99.90;;;;;;4995319;28;20077;-83
2023/04/27 11:37:36;;;;;;;6.95;2.20;;;9.20;99.90;;;;;;4996007;28;20062;-86
2023/04/27 11:40:22;;;;;;;6.38;2.30;;;9.20;99.90;;;;;;4995048;28;20081;-82
2023/04/27 11:43:14;;;;;;;7.97;2.58;;;9.30;99.90;;;;;;4994299;28;20053;-84
2023/04/27 11:46:05;;;;;;;5.32;2.30;;;9.40;99.90;;;;;;4982365;28;20060;-83
2023/04/27 11:48:51;;;;;;;9.85;2.85;;;9.50;99.90;;;;;;4995082;28;20054;-81
2023/04/27 11:51:39;;;;;;;10.30;3.05;;;9.50;99.90;;;;;;4981853;28;20512;-78
2023/04/27 11:54:28;;;;;;;8.43;2.25;;;9.70;99.90;;;;;;4982707;28;20050;-81
2023/04/27 11:57:15;;;;;;;9.15;2.90;;;9.70;99.90;;;;;;4981628;28;20060;-87
2023/04/27 12:00:09;;;;;;;10.60;2.80;;;9.90;99.90;;;;;;4995414;28;20058;-81
2023/04/27 12:02:56;;;;;;;8.57;2.75;;;10.10;99.90;;;;;;4995210;28;20053;-82
2023/04/27 12:05:50;;;;;;;6.63;2.58;;;10.50;99.90;;;;;;4993891;28;20065;-79
2023/04/27 12:08:36;;;;;;;6.35;2.83;;;10.90;99.90;;;;;;5011746;28;20057;-87
2023/04/27 12:11:29;;;;;;;4.47;2.13;;;11.30;99.90;;;;;;4981626;28;20140;-82
2023/04/27 12:14:15;;;;;;;4.32;1.92;;;11.90;99.90;;;;;;4994657;28;20108;-85
2023/04/27 12:17:01;;;;;;;5.00;2.00;;;12.40;99.90;;;;;;4993906;28;20050;-84
2023/04/27 12:19:47;;;;;;;6.40;2.28;;;13.10;99.90;;;;;;4995829;28;20147;-83
2023/04/27 12:22:33;;;;;;;4.95;1.88;;;13.80;99.70;;;;;;4982568;28;20050;-82
2023/04/27 12:25:20;;;;;;;6.70;2.10;;;14.50;98.10;;;;;;4982142;28;20053;-85
2023/04/27 12:28:06;;;;;;;5.45;1.92;;;14.80;96.30;;;;;;4995253;28;20144;-81
2023/04/27 12:30:52;;;;;;;4.60;1.90;;;15.60;96.20;;;;;;4994461;28;20502;-85
2023/04/27 12:33:38;;;;;;;7.07;1.90;;;15.60;94.90;;;;;;4982439;28;20617;-80
2023/04/27 12:36:26;;;;;;;6.28;1.80;;;15.50;93.70;;;;;;4993990;28;20137;-84
2023/04/27 12:39:18;;;;;;;11.02;2.80;;;15.40;93.30;;;;;;5010864;28;20065;-81
2023/04/27 12:42:04;;;;;;;8.80;1.75;;;15.70;93.20;;;;;;4995033;28;20050;-82
2023/04/27 12:44:51;;;;;;;7.32;1.75;;;16.00;93.20;;;;;;5012779;28;20053;-85
2023/04/27 12:47:39;;;;;;;5.32;1.88;;;15.90;93.10;;;;;;4994578;28;20132;-85
2023/04/27 12:50:25;;;;;;;4.22;1.67;;;15.90;91.90;;;;;;4981870;28;20391;-85
2023/04/27 12:53:11;;;;;;;6.63;2.03;;;16.10;92.10;;;;;;4981937;28;20045;-85
2023/04/27 12:56:00;;;;;;;5.45;1.80;;;16.80;91.30;;;;;;4981242;28;20144;-85
2023/04/27 12:58:47;;;;;;;6.78;2.00;;;17.30;91.40;;;;;;4993698;28;20089;-85
2023/04/27 13:01:33;;;;;;;8.13;1.80;;;18.20;90.60;;;;;;4994632;28;20107;-86
2023/04/27 13:04:19;;;;;;;5.53;2.10;;;18.80;89.80;;;;;;4994507;28;20054;-86
2023/04/27 13:07:06;;;;;;;4.97;1.83;;;18.80;88.10;;;;;;4981189;28;20116;-85
2023/04/27 13:09:52;;;;;;;8.38;2.45;;;19.20;86.10;;;;;;4994492;28;20080;-85
2023/04/27 13:12:38;;;;;;;7.35;1.77;;;19.40;84.20;;;;;;4992901;28;20041;-86
2023/04/27 13:15:24;;;;;;;7.50;1.92;;;19.90;82.40;;;;;;4991967;28;20057;-86
2023/04/27 13:18:10;;;;;;;6.78;1.58;;;19.90;81.60;;;;;;5010176;28;20053;-86
2023/04/27 13:20:56;;;;;;;9.27;1.88;;;19.70;81.00;;;;;;4992778;28;20061;-86
2023/04/27 13:23:42;;;;;;;17.17;3.47;;;19.70;79.20;;;;;;4981422;28;20076;-85
2023/04/27 13:26:29;;;;;;;5.72;2.03;;;19.60;79.30;;;;;;4992698;28;20057;-85
2023/04/27 13:29:16;;;;;;;8.27;2.65;;;19.50;78.60;;;;;;4981090;28;20056;-86
2023/04/27 13:32:03;;;;;;;8.10;2.38;;;19.70;77.90;;;;;;4993218;28;20103;-88
2023/04/27 13:34:49;;;;;;;6.03;2.00;;;19.60;78.30;;;;;;5008695;28;20050;-85
2023/04/27 13:37:35;;;;;;;8.50;2.05;;;20.00;78.10;;;;;;4992795;28;20057;-84
2023/04/27 13:40:21;;;;;;;8.85;2.38;;;20.20;75.70;;;;;;4993852;28;20065;-86
2023/04/27 13:43:07;;;;;;;8.50;1.70;;;20.50;75.30;;;;;;4992243;28;20144;-85
2023/04/27 13:45:54;;;;;;;5.85;1.77;;;20.60;72.60;;;;;;4992418;28;20049;-86
2023/04/27 13:48:41;;;;;;;4.47;1.85;;;20.50;72.40;;;;;;5009974;28;20060;-84
2023/04/27 13:51:28;;;;;;;7.15;2.42;;;20.80;71.20;;;;;;4996565;28;20490;-83
2023/04/27 13:54:14;;;;;;;6.03;1.80;;;20.70;70.80;;;;;;4993994;28;20052;-82
2023/04/27 13:57:02;;;;;;;12.07;3.03;;;20.40;69.80;;;;;;4992936;28;20054;-80
2023/04/27 13:59:48;;;;;;;7.47;2.28;;;20.50;68.70;;;;;;4994125;28;20053;-81
2023/04/27 14:02:34;;;;;;;4.75;1.65;;;20.50;69.00;;;;;;4980143;28;20064;-80
2023/04/27 14:05:21;;;;;;;7.55;2.15;;;20.70;69.00;;;;;;4980728;28;20077;-84
2023/04/27 14:08:07;;;;;;;7.78;2.92;;;20.90;67.70;;;;;;4992550;28;20053;-85
2023/04/27 14:10:53;;;;;;;5.55;1.55;;;21.30;66.80;;;;;;4991986;28;20050;-86
2023/04/27 14:13:40;;;;;;;5.82;1.73;;;21.50;66.60;;;;;;4993580;28;20477;-79
2023/04/27 14:16:26;;;;;;;5.95;1.85;;;21.30;66.30;;;;;;4992804;28;20057;-85
2023/04/27 14:19:14;;;;;;;5.88;1.77;;;21.30;65.90;;;;;;4992822;28;20170;-84
2023/04/27 14:22:00;;;;;;;10.25;2.45;;;20.70;65.20;;;;;;5010964;28;20057;-87
2023/04/27 14:24:47;;;;;;;16.85;3.10;;;20.80;66.10;;;;;;4991378;28;20486;-85
2023/04/27 14:27:33;;;;;;;9.52;2.20;;;21.30;65.30;;;;;;4991041;28;20066;-83
2023/04/27 14:30:19;;;;;;;8.27;2.35;;;21.70;65.20;;;;;;5009960;28;20065;-85
2023/04/27 14:33:05;;;;;;;6.25;2.10;;;21.60;63.80;;;;;;4992487;28;20050;-85
2023/04/27 14:35:51;;;;;;;6.07;2.10;;;21.70;62.60;;;;;;5011147;28;20053;-80